Time;durP1;ratioP1;P1;durP2;ratioP2;P2;SDS_P1;SDS_P2;PMS_P1;PMS_P2;Temp;Humidity;BMP_temperature;BMP_pressure;BME280_temperature;BME280_humidity;BME280_pressure;Samples;Min_cycle;Max_cycle;Signal;HPM_P1;HPM_P2
2022/05/25 00:00:18;;;;;;;11.88;8.68;;;;;;;;;;5071169;28;20045;-81
2022/05/25 00:02:45;;;;;;;11.75;8.77;;;;;;;;;;5071093;28;20048;-81
2022/05/25 00:05:11;;;;;;;10.73;8.98;;;;;;;;;;5070639;28;20125;-81
2022/05/25 00:07:37;;;;;;;10.70;9.35;;;;;;;;;;5072364;28;20126;-81
2022/05/25 00:10:04;;;;;;;10.98;9.13;;;;;;;;;;5071859;28;20070;-82
2022/05/25 00:12:32;;;;;;;14.75;9.60;;;;;;;;;;5071383;28;20055;-82
2022/05/25 00:14:58;;;;;;;11.23;9.38;;;;;;;;;;5071718;28;20044;-81
2022/05/25 00:17:24;;;;;;;13.38;9.85;;;;;;;;;;5070732;28;20041;-81
2022/05/25 00:20:00;;;;;;;12.63;9.75;;;;;;;;;;5070616;28;20393;-81
2022/05/25 00:22:27;;;;;;;11.82;9.52;;;;;;;;;;5071840;28;20500;-81
2022/05/25 00:24:56;;;;;;;11.65;9.50;;;;;;;;;;5070496;28;20036;-81
2022/05/25 00:27:22;;;;;;;13.40;9.95;;;;;;;;;;5071921;28;20050;-81
2022/05/25 00:29:48;;;;;;;13.40;10.27;;;;;;;;;;5070601;28;20036;-81
2022/05/25 00:32:14;;;;;;;11.25;9.88;;;;;;;;;;5070145;28;20421;-81
2022/05/25 00:34:40;;;;;;;11.82;9.73;;;;;;;;;;5053886;28;20046;-81
2022/05/25 00:37:06;;;;;;;12.35;10.00;;;;;;;;;;5069836;28;20409;-81
2022/05/25 00:39:32;;;;;;;13.57;10.50;;;;;;;;;;5070224;28;20051;-82
2022/05/25 00:41:58;;;;;;;14.77;10.65;;;;;;;;;;5070202;28;20087;-81
2022/05/25 00:44:24;;;;;;;14.20;10.35;;;;;;;;;;5071091;28;20116;-81
2022/05/25 00:46:50;;;;;;;11.93;9.50;;;;;;;;;;5069950;28;20052;-81
2022/05/25 00:49:21;;;;;;;13.75;10.15;;;;;;;;;;5071242;28;20075;-82
2022/05/25 00:51:49;;;;;;;14.65;10.52;;;;;;;;;;5071228;28;20049;-81
2022/05/25 00:54:20;;;;;;;13.77;10.18;;;;;;;;;;5071652;28;20067;-81
2022/05/25 00:56:49;;;;;;;14.38;10.80;;;;;;;;;;5071188;28;20036;-81
2022/05/25 00:59:16;;;;;;;13.77;10.30;;;;;;;;;;5070859;28;20049;-81
2022/05/25 01:01:43;;;;;;;15.20;11.10;;;;;;;;;;5070169;28;20045;-81
2022/05/25 01:04:09;;;;;;;15.13;11.32;;;;;;;;;;5070909;28;20045;-81
2022/05/25 01:06:49;;;;;;;12.95;11.27;;;;;;;;;;5071167;28;20114;-81
2022/05/25 01:09:15;;;;;;;14.70;11.27;;;;;;;;;;5069712;28;20507;-81
2022/05/25 01:12:01;;;;;;;15.23;11.30;;;;;;;;;;5069513;28;20136;-81
2022/05/25 01:14:27;;;;;;;15.63;11.32;;;;;;;;;;5068885;28;20080;-81
2022/05/25 01:17:04;;;;;;;15.23;11.23;;;;;;;;;;5070653;28;20509;-81
2022/05/25 01:19:30;;;;;;;15.68;11.50;;;;;;;;;;5069830;28;20107;-81
2022/05/25 01:22:20;;;;;;;15.38;11.38;;;;;;;;;;5070127;28;20145;-81
2022/05/25 01:24:55;;;;;;;14.27;11.32;;;;;;;;;;5069743;28;20524;-81
2022/05/25 01:27:21;;;;;;;15.65;12.27;;;;;;;;;;5069438;28;20434;-81
2022/05/25 01:29:47;;;;;;;16.13;11.50;;;;;;;;;;5070046;28;20068;-81
2022/05/25 01:32:19;;;;;;;15.65;12.45;;;;;;;;;;5070381;28;20526;-81
2022/05/25 01:34:53;;;;;;;16.90;11.90;;;;;;;;;;5069491;28;20079;-81
2022/05/25 01:37:36;;;;;;;18.92;12.00;;;;;;;;;;5070465;28;20413;-81
2022/05/25 01:40:02;;;;;;;20.02;12.23;;;;;;;;;;5070122;28;20040;-81
2022/05/25 01:42:30;;;;;;;19.27;12.95;;;;;;;;;;5070055;28;20109;-81
2022/05/25 01:44:58;;;;;;;16.90;12.45;;;;;;;;;;5069898;28;20350;-81
2022/05/25 01:47:25;;;;;;;16.25;12.85;;;;;;;;;;5069001;28;20052;-81
2022/05/25 01:49:56;;;;;;;17.13;12.75;;;;;;;;;;5068889;28;20523;-82
2022/05/25 01:52:28;;;;;;;19.98;12.98;;;;;;;;;;5070265;28;20052;-81
2022/05/25 01:54:56;;;;;;;17.40;12.93;;;;;;;;;;5069901;28;20044;-81
2022/05/25 01:57:24;;;;;;;22.67;13.52;;;;;;;;;;5069748;28;20482;-81
2022/05/25 01:59:50;;;;;;;17.65;12.48;;;;;;;;;;5051830;28;20507;-81
2022/05/25 02:05:04;;;;;;;18.98;13.77;;;;;;;;;;5069955;28;20037;-81
2022/05/25 02:07:49;;;;;;;19.33;13.38;;;;;;;;;;5068986;28;20568;-81
2022/05/25 02:10:21;;;;;;;17.73;13.80;;;;;;;;;;5069959;28;20044;-81
2022/05/25 02:13:06;;;;;;;18.25;13.85;;;;;;;;;;5069539;28;20048;-81
2022/05/25 02:15:39;;;;;;;17.83;13.25;;;;;;;;;;5070030;28;20048;-81
2022/05/25 02:18:15;;;;;;;18.50;12.98;;;;;;;;;;5068509;28;20105;-81
2022/05/25 02:20:45;;;;;;;21.15;14.15;;;;;;;;;;5068678;28;20063;-81
2022/05/25 02:23:16;;;;;;;18.58;14.25;;;;;;;;;;5069906;28;20098;-81
2022/05/25 02:25:57;;;;;;;18.27;13.07;;;;;;;;;;5068782;28;20048;-81
2022/05/25 02:28:26;;;;;;;20.90;14.57;;;;;;;;;;5068880;28;20106;-81
2022/05/25 02:30:53;;;;;;;19.67;14.32;;;;;;;;;;5068067;28;20563;-81
2022/05/25 02:33:25;;;;;;;21.95;13.73;;;;;;;;;;5070165;28;20060;-81
2022/05/25 02:35:52;;;;;;;21.42;14.13;;;;;;;;;;5069759;28;20575;-81
2022/05/25 02:38:18;;;;;;;24.50;14.20;;;;;;;;;;5069946;28;20098;-81
2022/05/25 02:40:44;;;;;;;17.25;12.55;;;;;;;;;;5069170;28;20063;-81
2022/05/25 02:43:10;;;;;;;16.25;12.48;;;;;;;;;;5069514;28;20040;-81
2022/05/25 02:45:37;;;;;;;18.27;12.60;;;;;;;;;;5069706;28;20040;-81
2022/05/25 02:48:03;;;;;;;18.45;12.98;;;;;;;;;;5067952;28;20465;-81
2022/05/25 02:50:30;;;;;;;19.05;13.23;;;;;;;;;;5069570;28;20088;-81
2022/05/25 02:52:56;;;;;;;17.35;12.98;;;;;;;;;;5069335;28;20067;-81
2022/05/25 02:55:22;;;;;;;20.45;13.32;;;;;;;;;;5068051;28;20063;-81
2022/05/25 02:57:48;;;;;;;18.45;12.50;;;;;;;;;;5069283;28;20505;-81
2022/05/25 03:00:15;;;;;;;20.23;12.98;;;;;;;;;;5069180;28;20485;-81
2022/05/25 03:02:41;;;;;;;19.42;12.35;;;;;;;;;;5068319;28;20124;-81
2022/05/25 03:05:08;;;;;;;18.10;12.43;;;;;;;;;;5068466;28;20132;-81
2022/05/25 03:07:35;;;;;;;18.92;12.75;;;;;;;;;;5069483;28;20044;-81
2022/05/25 03:10:01;;;;;;;17.52;13.18;;;;;;;;;;5068876;28;20106;-81
2022/05/25 03:12:27;;;;;;;18.92;12.50;;;;;;;;;;5073318;28;20055;-81
2022/05/25 03:14:53;;;;;;;18.00;12.93;;;;;;;;;;5072725;28;20397;-81
2022/05/25 03:17:19;;;;;;;15.50;12.73;;;;;;;;;;5071862;28;20045;-81
2022/05/25 03:19:52;;;;;;;16.50;12.82;;;;;;;;;;5071764;28;20243;-81
2022/05/25 03:22:19;;;;;;;17.50;12.05;;;;;;;;;;5071519;28;20051;-81
2022/05/25 03:24:45;;;;;;;16.42;12.23;;;;;;;;;;5071198;28;20514;-81
2022/05/25 03:27:11;;;;;;;18.95;12.05;;;;;;;;;;5072644;28;20052;-81
2022/05/25 03:29:37;;;;;;;18.17;12.13;;;;;;;;;;5073122;28;20044;-81
2022/05/25 03:32:03;;;;;;;15.10;12.07;;;;;;;;;;5072565;28;20560;-81
2022/05/25 03:34:29;;;;;;;19.50;12.02;;;;;;;;;;5055027;28;20044;-81
2022/05/25 03:36:55;;;;;;;17.70;11.50;;;;;;;;;;5072302;28;20097;-81
2022/05/25 03:39:22;;;;;;;16.77;12.60;;;;;;;;;;5072583;28;20041;-81
2022/05/25 03:42:09;;;;;;;19.58;12.27;;;;;;;;;;5071592;28;20052;-81
2022/05/25 03:44:35;;;;;;;17.38;12.30;;;;;;;;;;5071615;28;20044;-81
2022/05/25 03:47:02;;;;;;;17.00;11.35;;;;;;;;;;5054379;28;20154;-81
2022/05/25 03:49:28;;;;;;;16.13;11.07;;;;;;;;;;5072530;28;20049;-81
2022/05/25 03:51:54;;;;;;;16.45;11.60;;;;;;;;;;5070459;28;20048;-81
2022/05/25 03:54:20;;;;;;;13.43;9.85;;;;;;;;;;5071985;28;20036;-81
2022/05/25 03:56:46;;;;;;;16.95;10.90;;;;;;;;;;5072681;28;20507;-81
2022/05/25 03:59:12;;;;;;;15.10;10.38;;;;;;;;;;5072172;28;20094;-81
2022/05/25 04:01:38;;;;;;;16.42;10.55;;;;;;;;;;5072363;28;20106;-81
2022/05/25 04:04:04;;;;;;;15.85;10.32;;;;;;;;;;5071937;28;20048;-81
2022/05/25 04:06:31;;;;;;;17.48;10.43;;;;;;;;;;5072518;28;20071;-81
2022/05/25 04:08:56;;;;;;;13.98;9.68;;;;;;;;;;5071169;28;20044;-81
2022/05/25 04:11:22;;;;;;;15.60;9.70;;;;;;;;;;5070867;28;20049;-81
2022/05/25 04:13:49;;;;;;;15.55;10.23;;;;;;;;;;5070624;28;20080;-81
2022/05/25 04:16:15;;;;;;;16.55;10.57;;;;;;;;;;5070747;28;20048;-81
2022/05/25 04:18:41;;;;;;;13.90;10.02;;;;;;;;;;5071908;28;20040;-81
2022/05/25 04:21:07;;;;;;;14.15;9.43;;;;;;;;;;5070376;28;20059;-81
2022/05/25 04:23:33;;;;;;;17.00;10.52;;;;;;;;;;5069802;28;20049;-81
2022/05/25 04:25:59;;;;;;;14.13;9.85;;;;;;;;;;5070458;28;20049;-81
2022/05/25 04:28:25;;;;;;;15.75;10.25;;;;;;;;;;5071963;28;20402;-81
2022/05/25 04:30:51;;;;;;;11.85;9.88;;;;;;;;;;5071632;28;20481;-81
2022/05/25 04:33:17;;;;;;;15.77;9.68;;;;;;;;;;5072342;28;20090;-81
2022/05/25 04:35:44;;;;;;;16.58;9.15;;;;;;;;;;5070570;28;20048;-81
2022/05/25 04:38:13;;;;;;;12.15;9.15;;;;;;;;;;5071134;28;20044;-81
2022/05/25 04:40:40;;;;;;;15.95;9.13;;;;;;;;;;5070510;28;20109;-81
2022/05/25 04:43:08;;;;;;;12.48;8.85;;;;;;;;;;5071458;28;20036;-81
2022/05/25 04:45:35;;;;;;;14.73;8.52;;;;;;;;;;5071588;28;20079;-81
2022/05/25 04:48:02;;;;;;;11.82;8.30;;;;;;;;;;5070659;28;20480;-81
2022/05/25 04:50:29;;;;;;;15.43;8.10;;;;;;;;;;5071128;28;20063;-81
2022/05/25 04:52:59;;;;;;;9.75;7.68;;;;;;;;;;5070978;28;20248;-81
2022/05/25 04:58:23;;;;;;;11.85;7.40;;;;;;;;;;5070848;28;20044;-81
2022/05/25 05:00:49;;;;;;;14.10;7.38;;;;;;;;;;5071206;28;20445;-81
2022/05/25 05:03:16;;;;;;;12.13;6.88;;;;;;;;;;5069786;28;20056;-81
2022/05/25 05:05:42;;;;;;;10.48;6.53;;;;;;;;;;5070514;28;20493;-82
2022/05/25 05:08:08;;;;;;;12.57;6.82;;;;;;;;;;5070737;28;20051;-82
2022/05/25 05:10:34;;;;;;;8.43;6.55;;;;;;;;;;5070070;28;20052;-81
2022/05/25 05:13:07;;;;;;;11.90;6.03;;;;;;;;;;5052690;28;20398;-81
2022/05/25 05:15:37;;;;;;;10.27;6.20;;;;;;;;;;5069545;28;20052;-81
2022/05/25 05:18:04;;;;;;;10.98;6.47;;;;;;;;;;5069244;28;20460;-82
2022/05/25 05:20:30;;;;;;;7.25;5.28;;;;;;;;;;5069323;28;20549;-81
2022/05/25 05:22:56;;;;;;;7.15;5.38;;;;;;;;;;5069507;28;20044;-81
2022/05/25 05:25:22;;;;;;;11.93;5.50;;;;;;;;;;5069480;28;20107;-81
2022/05/25 05:27:49;;;;;;;8.38;5.10;;;;;;;;;;5069671;28;20070;-81
2022/05/25 05:30:17;;;;;;;11.40;5.32;;;;;;;;;;5070551;28;20043;-82
2022/05/25 05:32:43;;;;;;;8.70;5.00;;;;;;;;;;5070756;28;20052;-81
2022/05/25 05:35:09;;;;;;;9.63;5.18;;;;;;;;;;5069053;28;20036;-82
2022/05/25 05:38:05;;;;;;;8.25;4.72;;;;;;;;;;5069382;28;20044;-81
2022/05/25 05:40:31;;;;;;;8.07;5.20;;;;;;;;;;5061611;28;20516;-81
2022/05/25 05:42:58;;;;;;;11.20;4.93;;;;;;;;;;5070216;28;20144;-82
2022/05/25 05:45:27;;;;;;;8.55;4.93;;;;;;;;;;5070461;28;20089;-82
2022/05/25 05:47:57;;;;;;;6.60;4.47;;;;;;;;;;5068559;28;20130;-82
2022/05/25 05:50:24;;;;;;;7.70;4.28;;;;;;;;;;5069728;28;20083;-81
2022/05/25 05:52:51;;;;;;;6.47;4.47;;;;;;;;;;5070174;28;20055;-81
2022/05/25 05:55:17;;;;;;;7.25;4.20;;;;;;;;;;5070265;28;20044;-81
2022/05/25 05:57:44;;;;;;;6.93;4.53;;;;;;;;;;5070717;28;20044;-81
2022/05/25 06:00:11;;;;;;;9.55;3.95;;;;;;;;;;5070051;28;20032;-81
2022/05/25 06:02:37;;;;;;;7.20;4.00;;;;;;;;;;5070166;28;20084;-82
2022/05/25 06:05:03;;;;;;;7.20;3.60;;;;;;;;;;5068357;28;20076;-82
2022/05/25 06:07:29;;;;;;;7.05;3.53;;;;;;;;;;5068848;28;20098;-82
2022/05/25 06:09:56;;;;;;;7.28;3.65;;;;;;;;;;5068491;28;20049;-81
2022/05/25 06:12:22;;;;;;;6.50;3.30;;;;;;;;;;5068640;28;20456;-81
2022/05/25 06:14:48;;;;;;;4.95;3.75;;;;;;;;;;5068714;28;20044;-81
2022/05/25 06:19:59;;;;;;;5.47;3.45;;;;;;;;;;5069068;28;20044;-81
2022/05/25 06:22:27;;;;;;;7.20;3.30;;;;;;;;;;5070044;28;20036;-81
2022/05/25 06:24:53;;;;;;;4.15;3.25;;;;;;;;;;5068499;28;20497;-81
2022/05/25 06:27:20;;;;;;;11.68;3.60;;;;;;;;;;5069965;28;20409;-81
2022/05/25 06:29:47;;;;;;;7.68;3.60;;;;;;;;;;5069554;28;20382;-81
2022/05/25 06:32:14;;;;;;;8.40;3.55;;;;;;;;;;5069606;28;20048;-81
2022/05/25 06:34:41;;;;;;;6.85;3.50;;;;;;;;;;5069391;28;20040;-81
2022/05/25 06:37:07;;;;;;;7.97;2.97;;;;;;;;;;5051486;28;20068;-82
2022/05/25 06:39:37;;;;;;;6.40;3.05;;;;;;;;;;5069840;28;20102;-81
2022/05/25 06:42:04;;;;;;;8.50;3.13;;;;;;;;;;5069483;28;20045;-82
2022/05/25 06:44:30;;;;;;;5.47;3.80;;;;;;;;;;5069888;28;20098;-82
2022/05/25 06:46:56;;;;;;;7.30;3.53;;;;;;;;;;5072397;28;20063;-82
2022/05/25 06:49:22;;;;;;;6.18;3.60;;;;;;;;;;5072207;28;20493;-82
2022/05/25 06:51:48;;;;;;;6.90;3.90;;;;;;;;;;5073283;28;20044;-82
2022/05/25 06:54:15;;;;;;;6.78;3.70;;;;;;;;;;5072052;28;20378;-82
2022/05/25 06:56:41;;;;;;;7.03;4.07;;;;;;;;;;5072439;28;20109;-82
2022/05/25 06:59:07;;;;;;;5.03;4.00;;;;;;;;;;5071864;28;20441;-82
2022/05/25 07:01:34;;;;;;;8.55;3.95;;;;;;;;;;5072998;28;20044;-82
2022/05/25 07:04:00;;;;;;;6.07;4.10;;;;;;;;;;5073245;28;20124;-82
2022/05/25 07:06:26;;;;;;;7.47;3.78;;;;;;;;;;5073608;28;20051;-82
2022/05/25 07:08:53;;;;;;;6.15;3.70;;;;;;;;;;5072014;28;20051;-82
2022/05/25 07:11:20;;;;;;;9.57;3.95;;;;;;;;;;5055348;28;20049;-81
2022/05/25 07:13:46;;;;;;;7.95;4.00;;;;;;;;;;5072241;28;20056;-82
2022/05/25 07:16:14;;;;;;;7.13;3.90;;;;;;;;;;5072482;28;20048;-82
2022/05/25 07:18:40;;;;;;;4.85;3.28;;;;;;;;;;5073368;28;20084;-82
2022/05/25 07:21:14;;;;;;;7.28;4.00;;;;;;;;;;5071530;28;20044;-82
2022/05/25 07:23:41;;;;;;;4.93;3.50;;;;;;;;;;5072091;28;20060;-81
2022/05/25 07:26:08;;;;;;;5.88;3.47;;;;;;;;;;5071415;28;20560;-82
2022/05/25 07:28:35;;;;;;;6.30;3.55;;;;;;;;;;5072021;28;20493;-82
2022/05/25 07:31:08;;;;;;;7.47;3.40;;;;;;;;;;5071919;28;20040;-82
2022/05/25 07:33:35;;;;;;;4.95;3.40;;;;;;;;;;5071774;28;20062;-81
2022/05/25 07:36:02;;;;;;;6.40;3.45;;;;;;;;;;5071408;28;20059;-81
2022/05/25 07:38:29;;;;;;;5.78;3.33;;;;;;;;;;5072884;28;20047;-82
2022/05/25 07:40:56;;;;;;;5.65;3.47;;;;;;;;;;5072419;28;20052;-81
2022/05/25 07:43:23;;;;;;;4.50;3.13;;;;;;;;;;5072663;28;20403;-82
2022/05/25 07:45:49;;;;;;;3.65;2.90;;;;;;;;;;5070787;28;20051;-82
2022/05/25 07:48:15;;;;;;;5.55;3.00;;;;;;;;;;5070904;28;20158;-82
2022/05/25 07:50:42;;;;;;;4.47;3.00;;;;;;;;;;5072317;28;20465;-82
2022/05/25 07:53:55;;;;;;;4.63;3.10;;;;;;;;;;5072273;28;20093;-82
2022/05/25 07:55:54;;;;;;;;;;;;;;;;;;5071394;28;20381;-82
2022/05/25 07:58:21;;;;;;;5.95;2.90;;;;;;;;;;5071557;28;19920;-82
2022/05/25 08:00:47;;;;;;;4.43;3.05;;;;;;;;;;5071997;28;20048;-82
2022/05/25 08:05:59;;;;;;;5.25;3.75;;;;;;;;;;5071942;28;20052;-82
2022/05/25 08:08:26;;;;;;;8.93;3.78;;;;;;;;;;5072224;28;20056;-82
2022/05/25 08:11:00;;;;;;;5.47;3.30;;;;;;;;;;5070458;28;20533;-81
2022/05/25 08:13:26;;;;;;;3.83;3.15;;;;;;;;;;5072188;28;20045;-82
2022/05/25 08:15:52;;;;;;;6.72;3.65;;;;;;;;;;5071431;28;20044;-82
2022/05/25 08:18:19;;;;;;;4.63;3.55;;;;;;;;;;5072009;28;20456;-82
2022/05/25 08:20:45;;;;;;;4.20;3.35;;;;;;;;;;5071660;28;20076;-82
2022/05/25 08:23:14;;;;;;;5.70;3.72;;;;;;;;;;5071995;28;20048;-82
2022/05/25 08:25:40;;;;;;;4.43;4.00;;;;;;;;;;5071984;28;20040;-81
2022/05/25 08:28:06;;;;;;;5.50;4.10;;;;;;;;;;5070638;28;20048;-82
2022/05/25 08:30:34;;;;;;;5.43;3.60;;;;;;;;;;5070283;28;20500;-82
2022/05/25 08:33:01;;;;;;;7.75;4.20;;;;;;;;;;5070174;28;20485;-82
2022/05/25 08:35:27;;;;;;;5.93;4.60;;;;;;;;;;5071785;28;20047;-82
2022/05/25 08:37:53;;;;;;;5.20;4.10;;;;;;;;;;5071403;28;20113;-82
2022/05/25 08:40:20;;;;;;;4.95;4.10;;;;;;;;;;5071734;28;20047;-82
2022/05/25 08:43:02;;;;;;;4.40;3.67;;;;;;;;;;5070340;28;20511;-82
2022/05/25 08:45:37;;;;;;;4.47;3.75;;;;;;;;;;5071595;28;20041;-82
2022/05/25 08:48:04;;;;;;;4.67;3.90;;;;;;;;;;5069587;28;20055;-82
2022/05/25 08:50:30;;;;;;;6.55;3.70;;;;;;;;;;5069799;28;20061;-82
2022/05/25 08:52:57;;;;;;;4.72;3.38;;;;;;;;;;5069989;28;20132;-82
2022/05/25 08:55:32;;;;;;;5.78;3.58;;;;;;;;;;5070424;28;20052;-82
2022/05/25 08:58:00;;;;;;;4.30;3.33;;;;;;;;;;5070681;28;20079;-82
2022/05/25 09:00:26;;;;;;;5.35;3.67;;;;;;;;;;5071032;28;20842;-82
2022/05/25 09:03:10;;;;;;;5.20;3.45;;;;;;;;;;5069922;28;20051;-82
2022/05/25 09:05:40;;;;;;;4.85;3.78;;;;;;;;;;5070046;28;20044;-82
2022/05/25 09:08:06;;;;;;;6.03;3.95;;;;;;;;;;5070600;28;20048;-81
2022/05/25 09:10:36;;;;;;;6.07;3.88;;;;;;;;;;5069918;28;20051;-82
2022/05/25 09:13:06;;;;;;;4.88;3.50;;;;;;;;;;5070237;28;20048;-82
2022/05/25 09:15:35;;;;;;;4.38;3.22;;;;;;;;;;5069709;28;20435;-82
2022/05/25 09:18:04;;;;;;;6.88;3.40;;;;;;;;;;5070502;28;20397;-82
2022/05/25 09:20:51;;;;;;;3.58;3.28;;;;;;;;;;5070768;28;20040;-82
2022/05/25 09:23:17;;;;;;;;;;;;;;;;;;5069993;28;20052;-82
2022/05/25 09:25:44;;;;;;;5.95;4.30;;;;;;;;;;5071049;28;19927;-82
2022/05/25 09:28:22;;;;;;;5.00;3.60;;;;;;;;;;5068871;28;20637;-82
2022/05/25 09:30:50;;;;;;;5.80;3.42;;;;;;;;;;5070623;28;20299;-82
2022/05/25 09:33:36;;;;;;;5.85;3.67;;;;;;;;;;5069391;28;20153;-82
2022/05/25 09:36:04;;;;;;;4.85;3.60;;;;;;;;;;5070054;28;20048;-82
2022/05/25 09:38:42;;;;;;;5.28;4.00;;;;;;;;;;5069236;28;20048;-82
2022/05/25 09:41:09;;;;;;;5.40;3.70;;;;;;;;;;5069935;28;20053;-82
2022/05/25 09:43:36;;;;;;;6.63;3.92;;;;;;;;;;5069337;28;20057;-82
2022/05/25 09:46:11;;;;;;;6.47;3.78;;;;;;;;;;5068991;28;20393;-82
2022/05/25 09:48:47;;;;;;;6.78;3.92;;;;;;;;;;5069032;28;20463;-82
2022/05/25 09:51:37;;;;;;;4.43;3.78;;;;;;;;;;5068323;28;20060;-81
2022/05/25 09:54:14;;;;;;;5.97;4.40;;;;;;;;;;5060684;28;20501;-82
2022/05/25 09:56:43;;;;;;;4.72;3.40;;;;;;;;;;5069784;28;20517;-82
2022/05/25 09:59:13;;;;;;;6.13;4.05;;;;;;;;;;5070113;28;20040;-82
2022/05/25 10:01:44;;;;;;;5.90;4.07;;;;;;;;;;5068693;28;20523;-82
2022/05/25 10:04:12;;;;;;;6.78;4.18;;;;;;;;;;5068758;28;20068;-82
2022/05/25 10:06:49;;;;;;;4.70;3.90;;;;;;;;;;5068873;28;20445;-82
2022/05/25 10:09:21;;;;;;;5.28;3.80;;;;;;;;;;5070238;28;20084;-81
2022/05/25 10:11:49;;;;;;;6.05;4.28;;;;;;;;;;5069681;28;20048;-82
2022/05/25 10:14:24;;;;;;;4.95;4.10;;;;;;;;;;5069713;28;20177;-82
2022/05/25 10:16:51;;;;;;;10.80;7.93;;;;;;;;;;5069037;28;20128;-82
2022/05/25 10:19:18;;;;;;;12.57;11.27;;;;;;;;;;5068705;28;20071;-82
2022/05/25 10:21:50;;;;;;;15.02;12.25;;;;;;;;;;5069157;28;20052;-82
2022/05/25 10:24:27;;;;;;;16.60;13.10;;;;;;;;;;5051704;28;20052;-81
2022/05/25 10:26:58;;;;;;;14.45;12.32;;;;;;;;;;5069672;28;20048;-82
2022/05/25 10:38:20;;;;;;;5.47;4.78;;;;;;;;;;5068322;28;20056;-82
2022/05/25 10:40:46;;;;;;;7.88;6.70;;;;;;;;;;5068453;28;20069;-86
2022/05/25 10:43:17;;;;;;;9.95;8.40;;;;;;;;;;5069433;28;20051;-87
2022/05/25 10:45:51;;;;;;;9.55;8.30;;;;;;;;;;5061611;28;20124;-82
2022/05/25 10:48:24;;;;;;;10.25;8.20;;;;;;;;;;5047111;28;20076;-86
2022/05/25 10:50:52;;;;;;;8.60;7.78;;;;;;;;;;5047491;28;20049;-82
2022/05/25 10:53:19;;;;;;;7.82;6.65;;;;;;;;;;5049122;28;20037;-81
2022/05/25 10:56:00;;;;;;;5.32;4.63;;;;;;;;;;5049219;28;20049;-82
2022/05/25 10:58:26;;;;;;;4.32;3.83;;;;;;;;;;5049118;28;20486;-82
2022/05/25 11:00:52;;;;;;;4.10;3.40;;;;;;;;;;5047738;28;20383;-82
2022/05/25 11:03:38;;;;;;;5.13;3.83;;;;;;;;;;5047591;28;20060;-82
2022/05/25 11:06:23;;;;;;;7.53;4.80;;;;;;;;;;5042782;28;20080;-85
2022/05/25 11:09:07;;;;;;;5.30;4.80;;;;;;;;;;5033683;28;20422;-82
2022/05/25 11:11:42;;;;;;;7.35;5.28;;;;;;;;;;5048613;28;20052;-82
2022/05/25 11:14:14;;;;;;;11.33;8.93;;;;;;;;;;5047313;28;20127;-82
2022/05/25 11:16:55;;;;;;;14.35;12.05;;;;;;;;;;5032917;28;20111;-82
2022/05/25 11:19:39;;;;;;;14.70;11.23;;;;;;;;;;5049193;28;20063;-82
2022/05/25 11:22:21;;;;;;;12.68;8.60;;;;;;;;;;5047036;28;20053;-82
2022/05/25 11:24:56;;;;;;;12.05;8.63;;;;;;;;;;5034200;28;20037;-82
2022/05/25 11:27:30;;;;;;;10.80;9.40;;;;;;;;;;5049009;28;20107;-82
2022/05/25 11:30:05;;;;;;;11.48;9.68;;;;;;;;;;5048503;28;20099;-83
2022/05/25 11:32:50;;;;;;;12.30;9.35;;;;;;;;;;5050095;28;20049;-83
2022/05/25 11:35:21;;;;;;;9.90;8.65;;;;;;;;;;5050603;28;20516;-86
2022/05/25 11:38:04;;;;;;;7.13;5.93;;;;;;;;;;5049892;28;20061;-83
2022/05/25 11:40:33;;;;;;;4.43;3.10;;;;;;;;;;5052463;28;20045;-83
2022/05/25 11:43:10;;;;;;;4.38;2.80;;;;;;;;;;5052178;28;20509;-85
2022/05/25 11:45:43;;;;;;;4.30;2.60;;;;;;;;;;5051396;28;20681;-80
2022/05/25 11:48:21;;;;;;;5.00;2.40;;;;;;;;;;5052495;28;20052;-89
2022/05/25 11:51:01;;;;;;;4.70;2.20;;;;;;;;;;5050826;28;20049;-92
2022/05/25 11:53:56;;;;;;;2.90;2.08;;;;;;;;;;5037003;28;20045;-81
2022/05/25 11:56:32;;;;;;;3.35;1.63;;;;;;;;;;5019611;28;20247;-86
2022/05/25 11:59:07;;;;;;;4.10;2.30;;;;;;;;;;5051885;28;20049;-83
2022/05/25 12:01:44;;;;;;;3.53;2.00;;;;;;;;;;5047163;28;20033;-83
2022/05/25 12:04:22;;;;;;;3.40;1.65;;;;;;;;;;5031077;28;20468;-86
2022/05/25 12:06:48;;;;;;;3.50;1.70;;;;;;;;;;5051693;28;20041;-84
2022/05/25 12:09:33;;;;;;;3.08;1.70;;;;;;;;;;5051409;28;20128;-81
2022/05/25 12:12:18;;;;;;;6.15;1.85;;;;;;;;;;5051535;28;20084;-85
2022/05/25 12:14:44;;;;;;;3.72;1.75;;;;;;;;;;5050874;28;20037;-86
2022/05/25 12:17:20;;;;;;;5.07;2.05;;;;;;;;;;5042892;28;20302;-85
2022/05/25 12:19:46;;;;;;;3.45;1.65;;;;;;;;;;5030836;28;20134;-87
2022/05/25 12:22:15;;;;;;;5.22;1.90;;;;;;;;;;5047163;28;20053;-83
2022/05/25 12:24:43;;;;;;;3.72;1.75;;;;;;;;;;5054307;28;20094;-84
2022/05/25 12:27:10;;;;;;;7.00;2.03;;;;;;;;;;5041710;28;20446;-85
2022/05/25 12:29:39;;;;;;;4.82;2.10;;;;;;;;;;5047999;28;20056;-84
2022/05/25 12:32:06;;;;;;;5.25;2.17;;;;;;;;;;5033463;28;20059;-85
2022/05/25 12:34:38;;;;;;;5.18;2.38;;;;;;;;;;5051808;28;20052;-84
2022/05/25 12:37:05;;;;;;;7.00;2.47;;;;;;;;;;5055788;28;20041;-85
2022/05/25 12:39:43;;;;;;;6.53;2.70;;;;;;;;;;5047027;28;20041;-84
2022/05/25 12:42:24;;;;;;;6.47;2.70;;;;;;;;;;5035790;28;20052;-84
2022/05/25 12:50:42;;;;;;;4.18;2.53;;;;;;;;;;5051043;28;20060;-89
2022/05/25 12:53:27;;;;;;;3.80;2.70;;;;;;;;;;5055759;28;20094;-83
2022/05/25 12:55:58;;;;;;;4.25;2.20;;;;;;;;;;5051332;28;20044;-95
2022/05/25 12:58:37;;;;;;;5.63;2.10;;;;;;;;;;5049980;28;20508;-82
2022/05/25 13:01:08;;;;;;;5.30;2.20;;;;;;;;;;5051004;28;20041;-82
2022/05/25 13:03:38;;;;;;;2.72;2.03;;;;;;;;;;5049929;28;20053;-88
2022/05/25 13:06:05;;;;;;;4.80;2.30;;;;;;;;;;5040679;28;20041;-83
2022/05/25 13:09:00;;;;;;;5.53;2.25;;;;;;;;;;5062708;28;20041;-84
2022/05/25 13:11:31;;;;;;;6.85;2.10;;;;;;;;;;5062782;28;20053;-88
2022/05/25 13:13:58;;;;;;;7.32;2.22;;;;;;;;;;5050917;28;20052;-87
2022/05/25 13:16:48;;;;;;;4.57;2.10;;;;;;;;;;5045430;28;20124;-86
2022/05/25 13:19:20;;;;;;;4.05;1.83;;;;;;;;;;5051898;28;20290;-89
2022/05/25 13:21:53;;;;;;;3.42;1.80;;;;;;;;;;5059295;28;20052;-88
2022/05/25 13:24:28;;;;;;;4.30;1.80;;;;;;;;;;5065963;28;20052;-87
2022/05/25 13:27:12;;;;;;;4.40;1.85;;;;;;;;;;5042652;28;20044;-85
2022/05/25 13:29:57;;;;;;;3.55;1.92;;;;;;;;;;5033916;28;20128;-89
2022/05/25 13:32:39;;;;;;;4.95;1.80;;;;;;;;;;5051662;28;20052;-85
2022/05/25 13:35:20;;;;;;;3.08;1.60;;;;;;;;;;5049406;28;20045;-85
2022/05/25 13:38:01;;;;;;;4.88;1.75;;;;;;;;;;5049716;28;20157;-85
2022/05/25 13:40:44;;;;;;;3.00;1.40;;;;;;;;;;5030736;28;20099;-85
2022/05/25 13:43:16;;;;;;;3.15;1.60;;;;;;;;;;5029463;28;20064;-85
2022/05/25 13:45:44;;;;;;;5.40;1.45;;;;;;;;;;5043877;28;20414;-87
2022/05/25 13:48:11;;;;;;;3.08;1.27;;;;;;;;;;5046152;28;20095;-87
2022/05/25 13:50:43;;;;;;;3.78;1.70;;;;;;;;;;5056868;28;20485;-82
2022/05/25 13:53:10;;;;;;;3.78;1.60;;;;;;;;;;5069110;28;20044;-84
2022/05/25 13:55:37;;;;;;;7.82;1.83;;;;;;;;;;5069742;28;20048;-84
2022/05/25 13:58:17;;;;;;;4.78;1.70;;;;;;;;;;5068396;28;20488;-84
2022/05/25 14:00:44;;;;;;;5.65;1.90;;;;;;;;;;5033770;28;20046;-85
2022/05/25 14:03:16;;;;;;;5.82;2.05;;;;;;;;;;5029811;28;20529;-82
2022/05/25 14:05:45;;;;;;;6.70;1.88;;;;;;;;;;5013220;28;20045;-90
2022/05/25 14:08:20;;;;;;;6.75;1.90;;;;;;;;;;5031694;28;20411;-80
2022/05/25 14:10:58;;;;;;;4.50;1.80;;;;;;;;;;5050657;28;20044;-83
2022/05/25 14:13:24;;;;;;;3.35;1.73;;;;;;;;;;5048800;28;20448;-82
2022/05/25 14:15:54;;;;;;;3.45;1.80;;;;;;;;;;5048976;28;20041;-84
2022/05/25 14:18:20;;;;;;;3.63;1.88;;;;;;;;;;5046833;28;20052;-88
2022/05/25 14:20:46;;;;;;;4.40;1.80;;;;;;;;;;5041652;28;20098;-84
2022/05/25 14:23:12;;;;;;;5.53;2.00;;;;;;;;;;5068661;28;20041;-83
2022/05/25 14:25:38;;;;;;;5.53;2.15;;;;;;;;;;5069003;28;20083;-83
2022/05/25 14:28:04;;;;;;;4.85;1.85;;;;;;;;;;5067947;28;20041;-86
2022/05/25 14:30:33;;;;;;;4.25;1.80;;;;;;;;;;5047720;28;20087;-83
2022/05/25 14:33:06;;;;;;;7.50;2.03;;;;;;;;;;5049266;28;20263;-84
2022/05/25 14:35:33;;;;;;;7.95;2.00;;;;;;;;;;5048568;28;20045;-83
2022/05/25 14:38:04;;;;;;;3.33;1.75;;;;;;;;;;5046454;28;20041;-84
2022/05/25 14:40:32;;;;;;;4.10;1.70;;;;;;;;;;5030601;28;20143;-83
2022/05/25 14:42:59;;;;;;;4.15;1.75;;;;;;;;;;5028590;28;20064;-83
2022/05/25 14:45:25;;;;;;;4.50;1.77;;;;;;;;;;5038901;28;20509;-83
2022/05/25 14:48:01;;;;;;;6.55;2.03;;;;;;;;;;5047482;28;20049;-83
2022/05/25 14:50:31;;;;;;;5.00;2.00;;;;;;;;;;5030339;28;20054;-83
2022/05/25 14:53:04;;;;;;;6.07;1.88;;;;;;;;;;5029707;28;20049;-83
2022/05/25 14:55:32;;;;;;;4.65;1.88;;;;;;;;;;5028726;28;20057;-83
2022/05/25 14:58:21;;;;;;;6.35;2.08;;;;;;;;;;5044783;28;20128;-83
2022/05/25 15:00:58;;;;;;;7.40;2.05;;;;;;;;;;5046962;28;20127;-83
2022/05/25 15:03:27;;;;;;;5.15;2.00;;;;;;;;;;5049683;28;20045;-83
2022/05/25 15:05:59;;;;;;;4.60;2.10;;;;;;;;;;5047725;28;20413;-83
2022/05/25 15:08:31;;;;;;;3.38;1.98;;;;;;;;;;5053193;28;20041;-83
2022/05/25 15:10:57;;;;;;;7.57;1.92;;;;;;;;;;5033277;28;20053;-83
2022/05/25 15:19:03;;;;;;;6.82;2.35;;;;;;;;;;5028329;28;20045;-83
2022/05/25 15:21:34;;;;;;;5.40;2.03;;;;;;;;;;5030915;28;20060;-83
2022/05/25 15:24:02;;;;;;;11.93;2.33;;;;;;;;;;5033434;28;20053;-83